sensor_id;sensor_type;location;lat;lon;timestamp;P1;durP1;ratioP1;P2;durP2;ratioP2
69847;SDS011;57143;55.940;37.496;2024-02-26T00:02:03;7.43;;;2.35;;
69847;SDS011;57143;55.940;37.496;2024-02-26T00:04:30;6.67;;;1.97;;
69847;SDS011;57143;55.940;37.496;2024-02-26T00:06:58;8.52;;;1.88;;
69847;SDS011;57143;55.940;37.496;2024-02-26T00:09:26;8.15;;;1.90;;
69847;SDS011;57143;55.940;37.496;2024-02-26T00:11:54;8.48;;;2.05;;
69847;SDS011;57143;55.940;37.496;2024-02-26T00:14:21;7.57;;;2.20;;
69847;SDS011;57143;55.940;37.496;2024-02-26T00:16:48;6.50;;;2.07;;
69847;SDS011;57143;55.940;37.496;2024-02-26T00:19:16;4.13;;;1.25;;
69847;SDS011;57143;55.940;37.496;2024-02-26T00:21:43;6.10;;;1.40;;
69847;SDS011;57143;55.940;37.496;2024-02-26T00:24:10;8.13;;;1.92;;
69847;SDS011;57143;55.940;37.496;2024-02-26T00:26:39;5.95;;;1.55;;
69847;SDS011;57143;55.940;37.496;2024-02-26T00:29:06;6.70;;;1.93;;
69847;SDS011;57143;55.940;37.496;2024-02-26T00:31:34;6.03;;;1.85;;
69847;SDS011;57143;55.940;37.496;2024-02-26T00:34:03;6.57;;;1.42;;
69847;SDS011;57143;55.940;37.496;2024-02-26T00:36:30;8.32;;;2.83;;
69847;SDS011;57143;55.940;37.496;2024-02-26T00:38:58;6.40;;;1.70;;
69847;SDS011;57143;55.940;37.496;2024-02-26T00:41:25;6.47;;;2.07;;
69847;SDS011;57143;55.940;37.496;2024-02-26T00:43:54;5.85;;;1.63;;
69847;SDS011;57143;55.940;37.496;2024-02-26T00:46:21;6.32;;;1.50;;
69847;SDS011;57143;55.940;37.496;2024-02-26T00:48:48;5.25;;;1.55;;
69847;SDS011;57143;55.940;37.496;2024-02-26T00:51:16;5.72;;;1.70;;
69847;SDS011;57143;55.940;37.496;2024-02-26T00:53:43;6.50;;;1.77;;
69847;SDS011;57143;55.940;37.496;2024-02-26T00:56:10;8.70;;;1.88;;
69847;SDS011;57143;55.940;37.496;2024-02-26T00:58:37;10.82;;;2.40;;
69847;SDS011;57143;55.940;37.496;2024-02-26T01:01:06;5.22;;;1.52;;
69847;SDS011;57143;55.940;37.496;2024-02-26T01:03:33;6.28;;;1.50;;
69847;SDS011;57143;55.940;37.496;2024-02-26T01:06:01;6.87;;;1.43;;
69847;SDS011;57143;55.940;37.496;2024-02-26T01:08:28;6.68;;;2.03;;
69847;SDS011;57143;55.940;37.496;2024-02-26T01:10:56;5.72;;;1.50;;
69847;SDS011;57143;55.940;37.496;2024-02-26T01:13:24;6.57;;;1.52;;
69847;SDS011;57143;55.940;37.496;2024-02-26T01:15:51;8.60;;;1.88;;
69847;SDS011;57143;55.940;37.496;2024-02-26T01:18:20;9.53;;;2.20;;
69847;SDS011;57143;55.940;37.496;2024-02-26T01:20:47;5.75;;;1.83;;
69847;SDS011;57143;55.940;37.496;2024-02-26T01:23:14;6.65;;;1.90;;
69847;SDS011;57143;55.940;37.496;2024-02-26T01:25:42;5.40;;;1.80;;
69847;SDS011;57143;55.940;37.496;2024-02-26T01:28:09;8.07;;;2.20;;
69847;SDS011;57143;55.940;37.496;2024-02-26T01:30:37;8.00;;;2.50;;
69847;SDS011;57143;55.940;37.496;2024-02-26T01:33:04;7.00;;;1.90;;
69847;SDS011;57143;55.940;37.496;2024-02-26T01:35:33;6.10;;;1.40;;
69847;SDS011;57143;55.940;37.496;2024-02-26T01:38:00;5.72;;;1.38;;
69847;SDS011;57143;55.940;37.496;2024-02-26T01:40:27;5.97;;;1.85;;
69847;SDS011;57143;55.940;37.496;2024-02-26T01:42:55;12.50;;;1.63;;
69847;SDS011;57143;55.940;37.496;2024-02-26T01:45:22;9.13;;;1.60;;
69847;SDS011;57143;55.940;37.496;2024-02-26T01:47:50;6.43;;;1.55;;
69847;SDS011;57143;55.940;37.496;2024-02-26T01:50:19;4.97;;;1.10;;
69847;SDS011;57143;55.940;37.496;2024-02-26T01:52:48;4.97;;;1.27;;
69847;SDS011;57143;55.940;37.496;2024-02-26T01:55:17;5.83;;;1.27;;
69847;SDS011;57143;55.940;37.496;2024-02-26T01:57:45;6.63;;;1.90;;
69847;SDS011;57143;55.940;37.496;2024-02-26T02:00:17;4.28;;;0.73;;
69847;SDS011;57143;55.940;37.496;2024-02-26T02:02:46;5.32;;;1.60;;
69847;SDS011;57143;55.940;37.496;2024-02-26T02:05:14;6.05;;;1.27;;
69847;SDS011;57143;55.940;37.496;2024-02-26T02:07:43;6.30;;;1.77;;
69847;SDS011;57143;55.940;37.496;2024-02-26T02:10:13;5.35;;;1.73;;
69847;SDS011;57143;55.940;37.496;2024-02-26T02:12:43;6.60;;;1.48;;
69847;SDS011;57143;55.940;37.496;2024-02-26T02:15:10;5.25;;;1.38;;
69847;SDS011;57143;55.940;37.496;2024-02-26T02:17:38;6.13;;;1.85;;
69847;SDS011;57143;55.940;37.496;2024-02-26T02:20:08;7.40;;;1.90;;
69847;SDS011;57143;55.940;37.496;2024-02-26T02:22:37;7.18;;;1.50;;
69847;SDS011;57143;55.940;37.496;2024-02-26T02:25:05;5.90;;;1.67;;
69847;SDS011;57143;55.940;37.496;2024-02-26T02:27:33;5.78;;;1.48;;
69847;SDS011;57143;55.940;37.496;2024-02-26T02:30:00;5.97;;;1.80;;
69847;SDS011;57143;55.940;37.496;2024-02-26T02:32:30;6.43;;;1.30;;
69847;SDS011;57143;55.940;37.496;2024-02-26T02:34:58;9.10;;;1.92;;
69847;SDS011;57143;55.940;37.496;2024-02-26T02:37:26;5.68;;;1.20;;
69847;SDS011;57143;55.940;37.496;2024-02-26T02:39:55;9.88;;;1.50;;
69847;SDS011;57143;55.940;37.496;2024-02-26T02:42:23;6.15;;;1.23;;
69847;SDS011;57143;55.940;37.496;2024-02-26T02:44:51;6.40;;;1.70;;
69847;SDS011;57143;55.940;37.496;2024-02-26T02:47:18;6.55;;;1.33;;
69847;SDS011;57143;55.940;37.496;2024-02-26T02:49:45;6.05;;;1.92;;
69847;SDS011;57143;55.940;37.496;2024-02-26T02:52:13;4.30;;;0.85;;
69847;SDS011;57143;55.940;37.496;2024-02-26T02:54:40;6.20;;;0.98;;
69847;SDS011;57143;55.940;37.496;2024-02-26T02:57:09;7.43;;;1.30;;
69847;SDS011;57143;55.940;37.496;2024-02-26T02:59:37;7.05;;;1.45;;
69847;SDS011;57143;55.940;37.496;2024-02-26T03:02:04;5.63;;;1.35;;
69847;SDS011;57143;55.940;37.496;2024-02-26T03:04:32;3.08;;;0.77;;
69847;SDS011;57143;55.940;37.496;2024-02-26T03:07:00;5.63;;;1.48;;
69847;SDS011;57143;55.940;37.496;2024-02-26T03:09:27;4.80;;;1.27;;
69847;SDS011;57143;55.940;37.496;2024-02-26T03:11:55;5.82;;;1.45;;
69847;SDS011;57143;55.940;37.496;2024-02-26T03:14:23;4.43;;;0.90;;
69847;SDS011;57143;55.940;37.496;2024-02-26T03:16:53;5.00;;;1.50;;
69847;SDS011;57143;55.940;37.496;2024-02-26T03:19:21;6.50;;;1.33;;
69847;SDS011;57143;55.940;37.496;2024-02-26T03:21:48;5.10;;;1.07;;
69847;SDS011;57143;55.940;37.496;2024-02-26T03:24:15;6.60;;;1.50;;
69847;SDS011;57143;55.940;37.496;2024-02-26T03:26:43;7.57;;;2.38;;
69847;SDS011;57143;55.940;37.496;2024-02-26T03:29:10;6.95;;;0.98;;
69847;SDS011;57143;55.940;37.496;2024-02-26T03:31:39;5.38;;;1.48;;
69847;SDS011;57143;55.940;37.496;2024-02-26T03:34:06;5.40;;;1.17;;
69847;SDS011;57143;55.940;37.496;2024-02-26T03:36:34;6.38;;;1.40;;
69847;SDS011;57143;55.940;37.496;2024-02-26T03:39:01;5.57;;;1.58;;
69847;SDS011;57143;55.940;37.496;2024-02-26T03:41:30;7.22;;;1.27;;
69847;SDS011;57143;55.940;37.496;2024-02-26T03:43:58;7.70;;;1.88;;
69847;SDS011;57143;55.940;37.496;2024-02-26T03:46:25;5.20;;;1.27;;
69847;SDS011;57143;55.940;37.496;2024-02-26T03:48:54;7.63;;;1.65;;
69847;SDS011;57143;55.940;37.496;2024-02-26T03:51:21;6.68;;;1.60;;
69847;SDS011;57143;55.940;37.496;2024-02-26T03:53:48;6.88;;;1.55;;
69847;SDS011;57143;55.940;37.496;2024-02-26T03:56:16;5.75;;;0.73;;
69847;SDS011;57143;55.940;37.496;2024-02-26T03:58:43;5.87;;;1.17;;
69847;SDS011;57143;55.940;37.496;2024-02-26T04:01:10;6.70;;;1.35;;
69847;SDS011;57143;55.940;37.496;2024-02-26T04:03:37;4.65;;;1.25;;
69847;SDS011;57143;55.940;37.496;2024-02-26T04:06:07;7.78;;;1.50;;
69847;SDS011;57143;55.940;37.496;2024-02-26T04:08:35;5.88;;;1.60;;
69847;SDS011;57143;55.940;37.496;2024-02-26T04:11:03;7.30;;;1.30;;
69847;SDS011;57143;55.940;37.496;2024-02-26T04:13:33;4.68;;;0.85;;
69847;SDS011;57143;55.940;37.496;2024-02-26T04:16:00;5.53;;;1.70;;
69847;SDS011;57143;55.940;37.496;2024-02-26T04:18:28;8.07;;;1.63;;
69847;SDS011;57143;55.940;37.496;2024-02-26T04:20:55;4.47;;;1.48;;
69847;SDS011;57143;55.940;37.496;2024-02-26T04:23:25;4.53;;;1.13;;
69847;SDS011;57143;55.940;37.496;2024-02-26T04:25:52;4.75;;;1.00;;
69847;SDS011;57143;55.940;37.496;2024-02-26T04:28:19;6.07;;;1.60;;
69847;SDS011;57143;55.940;37.496;2024-02-26T04:30:47;5.40;;;1.20;;
69847;SDS011;57143;55.940;37.496;2024-02-26T04:33:14;3.95;;;1.02;;
69847;SDS011;57143;55.940;37.496;2024-02-26T04:35:42;5.83;;;1.67;;
69847;SDS011;57143;55.940;37.496;2024-02-26T04:38:09;5.40;;;1.17;;
69847;SDS011;57143;55.940;37.496;2024-02-26T04:40:38;6.68;;;1.88;;
69847;SDS011;57143;55.940;37.496;2024-02-26T04:43:06;5.10;;;1.27;;
69847;SDS011;57143;55.940;37.496;2024-02-26T04:45:33;5.40;;;0.98;;
69847;SDS011;57143;55.940;37.496;2024-02-26T04:48:01;4.23;;;1.17;;
69847;SDS011;57143;55.940;37.496;2024-02-26T04:50:28;6.95;;;1.58;;
69847;SDS011;57143;55.940;37.496;2024-02-26T04:52:55;8.05;;;1.23;;
69847;SDS011;57143;55.940;37.496;2024-02-26T04:55:23;5.38;;;1.33;;
69847;SDS011;57143;55.940;37.496;2024-02-26T04:57:52;3.92;;;0.77;;
69847;SDS011;57143;55.940;37.496;2024-02-26T05:00:19;6.17;;;1.50;;
69847;SDS011;57143;55.940;37.496;2024-02-26T05:02:46;5.05;;;1.13;;
69847;SDS011;57143;55.940;37.496;2024-02-26T05:05:14;8.30;;;1.10;;
69847;SDS011;57143;55.940;37.496;2024-02-26T05:07:41;3.63;;;0.82;;
69847;SDS011;57143;55.940;37.496;2024-02-26T05:10:09;5.35;;;1.35;;
69847;SDS011;57143;55.940;37.496;2024-02-26T05:12:37;4.47;;;1.20;;
69847;SDS011;57143;55.940;37.496;2024-02-26T05:15:06;5.13;;;1.40;;
69847;SDS011;57143;55.940;37.496;2024-02-26T05:17:34;6.22;;;1.42;;
69847;SDS011;57143;55.940;37.496;2024-02-26T05:20:01;5.72;;;1.58;;
69847;SDS011;57143;55.940;37.496;2024-02-26T05:22:29;7.80;;;1.92;;
69847;SDS011;57143;55.940;37.496;2024-02-26T05:24:57;6.77;;;1.67;;
69847;SDS011;57143;55.940;37.496;2024-02-26T05:27:24;5.65;;;1.23;;
69847;SDS011;57143;55.940;37.496;2024-02-26T05:29:51;7.03;;;1.85;;
69847;SDS011;57143;55.940;37.496;2024-02-26T05:32:21;5.38;;;1.55;;
69847;SDS011;57143;55.940;37.496;2024-02-26T05:34:48;5.57;;;1.40;;
69847;SDS011;57143;55.940;37.496;2024-02-26T05:37:15;5.83;;;1.50;;
69847;SDS011;57143;55.940;37.496;2024-02-26T05:39:43;5.38;;;1.15;;
69847;SDS011;57143;55.940;37.496;2024-02-26T05:42:10;9.90;;;1.92;;
69847;SDS011;57143;55.940;37.496;2024-02-26T05:44:38;5.85;;;1.83;;
69847;SDS011;57143;55.940;37.496;2024-02-26T05:47:05;5.57;;;1.63;;
69847;SDS011;57143;55.940;37.496;2024-02-26T05:49:34;5.57;;;1.50;;
69847;SDS011;57143;55.940;37.496;2024-02-26T05:52:01;6.63;;;1.48;;
69847;SDS011;57143;55.940;37.496;2024-02-26T05:54:28;7.18;;;1.70;;
69847;SDS011;57143;55.940;37.496;2024-02-26T05:56:56;6.20;;;1.30;;
69847;SDS011;57143;55.940;37.496;2024-02-26T05:59:24;7.45;;;1.45;;
69847;SDS011;57143;55.940;37.496;2024-02-26T06:01:51;6.37;;;1.53;;
69847;SDS011;57143;55.940;37.496;2024-02-26T06:04:18;9.88;;;1.63;;
69847;SDS011;57143;55.940;37.496;2024-02-26T06:06:47;7.40;;;1.75;;
69847;SDS011;57143;55.940;37.496;2024-02-26T06:09:15;6.65;;;1.35;;
69847;SDS011;57143;55.940;37.496;2024-02-26T06:11:42;5.88;;;1.40;;
69847;SDS011;57143;55.940;37.496;2024-02-26T06:14:09;10.00;;;1.93;;
69847;SDS011;57143;55.940;37.496;2024-02-26T06:16:38;6.07;;;1.77;;
69847;SDS011;57143;55.940;37.496;2024-02-26T06:19:05;8.77;;;1.70;;
69847;SDS011;57143;55.940;37.496;2024-02-26T06:21:33;6.03;;;1.52;;
69847;SDS011;57143;55.940;37.496;2024-02-26T06:24:02;8.40;;;2.33;;
69847;SDS011;57143;55.940;37.496;2024-02-26T06:26:29;9.63;;;1.97;;
69847;SDS011;57143;55.940;37.496;2024-02-26T06:28:58;4.85;;;1.23;;
69847;SDS011;57143;55.940;37.496;2024-02-26T06:31:26;6.45;;;1.50;;
69847;SDS011;57143;55.940;37.496;2024-02-26T06:33:54;6.15;;;1.65;;
69847;SDS011;57143;55.940;37.496;2024-02-26T06:36:22;4.50;;;1.77;;
69847;SDS011;57143;55.940;37.496;2024-02-26T06:38:49;10.40;;;2.47;;
69847;SDS011;57143;55.940;37.496;2024-02-26T06:41:18;6.30;;;2.00;;
69847;SDS011;57143;55.940;37.496;2024-02-26T06:43:46;6.85;;;1.95;;
69847;SDS011;57143;55.940;37.496;2024-02-26T06:46:13;7.35;;;2.05;;
69847;SDS011;57143;55.940;37.496;2024-02-26T06:48:41;5.70;;;1.63;;
69847;SDS011;57143;55.940;37.496;2024-02-26T06:51:08;7.50;;;2.40;;
69847;SDS011;57143;55.940;37.496;2024-02-26T06:53:35;7.53;;;2.40;;
69847;SDS011;57143;55.940;37.496;2024-02-26T06:56:03;9.77;;;2.85;;
69847;SDS011;57143;55.940;37.496;2024-02-26T06:58:33;13.18;;;1.88;;
69847;SDS011;57143;55.940;37.496;2024-02-26T07:01:00;4.85;;;1.65;;
69847;SDS011;57143;55.940;37.496;2024-02-26T07:03:27;8.40;;;2.27;;
69847;SDS011;57143;55.940;37.496;2024-02-26T07:05:55;7.03;;;2.17;;
69847;SDS011;57143;55.940;37.496;2024-02-26T07:08:23;7.93;;;2.30;;
69847;SDS011;57143;55.940;37.496;2024-02-26T07:10:50;7.43;;;1.63;;
69847;SDS011;57143;55.940;37.496;2024-02-26T07:13:18;9.57;;;2.65;;
69847;SDS011;57143;55.940;37.496;2024-02-26T07:15:47;13.13;;;2.40;;
69847;SDS011;57143;55.940;37.496;2024-02-26T07:18:15;13.05;;;2.88;;
69847;SDS011;57143;55.940;37.496;2024-02-26T07:20:42;7.30;;;2.28;;
69847;SDS011;57143;55.940;37.496;2024-02-26T07:23:09;10.73;;;2.60;;
69847;SDS011;57143;55.940;37.496;2024-02-26T07:25:40;11.48;;;2.70;;
69847;SDS011;57143;55.940;37.496;2024-02-26T07:28:07;9.87;;;3.00;;
69847;SDS011;57143;55.940;37.496;2024-02-26T07:30:35;8.13;;;2.42;;
69847;SDS011;57143;55.940;37.496;2024-02-26T07:33:04;6.15;;;1.83;;
69847;SDS011;57143;55.940;37.496;2024-02-26T07:35:32;12.45;;;2.40;;
69847;SDS011;57143;55.940;37.496;2024-02-26T07:37:59;8.38;;;2.47;;
69847;SDS011;57143;55.940;37.496;2024-02-26T07:40:27;9.30;;;2.63;;
69847;SDS011;57143;55.940;37.496;2024-02-26T07:42:54;7.22;;;2.22;;
69847;SDS011;57143;55.940;37.496;2024-02-26T07:45:21;8.13;;;2.75;;
69847;SDS011;57143;55.940;37.496;2024-02-26T07:47:49;8.80;;;2.00;;
69847;SDS011;57143;55.940;37.496;2024-02-26T07:50:18;9.35;;;2.65;;
69847;SDS011;57143;55.940;37.496;2024-02-26T07:52:46;6.50;;;1.80;;
69847;SDS011;57143;55.940;37.496;2024-02-26T07:55:13;9.48;;;3.15;;
69847;SDS011;57143;55.940;37.496;2024-02-26T07:57:41;9.88;;;2.47;;
69847;SDS011;57143;55.940;37.496;2024-02-26T08:00:09;6.55;;;2.20;;
69847;SDS011;57143;55.940;37.496;2024-02-26T08:02:42;9.88;;;2.30;;
69847;SDS011;57143;55.940;37.496;2024-02-26T08:05:09;9.80;;;3.60;;
69847;SDS011;57143;55.940;37.496;2024-02-26T08:07:38;19.85;;;2.67;;
69847;SDS011;57143;55.940;37.496;2024-02-26T08:10:06;8.15;;;3.08;;
69847;SDS011;57143;55.940;37.496;2024-02-26T08:12:34;9.20;;;2.38;;
69847;SDS011;57143;55.940;37.496;2024-02-26T08:15:01;6.68;;;2.10;;
69847;SDS011;57143;55.940;37.496;2024-02-26T08:17:30;9.30;;;2.30;;
69847;SDS011;57143;55.940;37.496;2024-02-26T08:19:58;8.65;;;2.17;;
69847;SDS011;57143;55.940;37.496;2024-02-26T08:22:26;9.30;;;2.47;;
69847;SDS011;57143;55.940;37.496;2024-02-26T08:24:54;7.43;;;2.13;;
69847;SDS011;57143;55.940;37.496;2024-02-26T08:27:22;8.80;;;2.72;;
69847;SDS011;57143;55.940;37.496;2024-02-26T08:29:49;9.47;;;2.53;;
69847;SDS011;57143;55.940;37.496;2024-02-26T08:32:16;10.50;;;2.30;;
69847;SDS011;57143;55.940;37.496;2024-02-26T08:34:44;7.72;;;2.70;;
69847;SDS011;57143;55.940;37.496;2024-02-26T08:37:11;7.53;;;2.40;;
69847;SDS011;57143;55.940;37.496;2024-02-26T08:39:38;12.45;;;2.92;;
69847;SDS011;57143;55.940;37.496;2024-02-26T08:42:07;10.30;;;2.23;;
69847;SDS011;57143;55.940;37.496;2024-02-26T08:44:34;8.25;;;2.55;;
69847;SDS011;57143;55.940;37.496;2024-02-26T08:47:02;11.23;;;2.45;;
69847;SDS011;57143;55.940;37.496;2024-02-26T08:52:15;9.70;;;2.70;;
69847;SDS011;57143;55.940;37.496;2024-02-26T08:54:42;7.83;;;2.50;;
69847;SDS011;57143;55.940;37.496;2024-02-26T08:57:11;10.32;;;2.75;;
69847;SDS011;57143;55.940;37.496;2024-02-26T08:59:38;10.25;;;2.17;;
69847;SDS011;57143;55.940;37.496;2024-02-26T09:02:05;10.07;;;2.63;;
69847;SDS011;57143;55.940;37.496;2024-02-26T09:04:34;11.48;;;2.33;;
69847;SDS011;57143;55.940;37.496;2024-02-26T09:07:02;6.87;;;2.47;;
69847;SDS011;57143;55.940;37.496;2024-02-26T09:09:29;9.88;;;3.10;;
69847;SDS011;57143;55.940;37.496;2024-02-26T09:11:57;7.75;;;2.50;;
69847;SDS011;57143;55.940;37.496;2024-02-26T09:14:25;7.13;;;2.22;;
69847;SDS011;57143;55.940;37.496;2024-02-26T09:16:53;7.35;;;2.28;;
69847;SDS011;57143;55.940;37.496;2024-02-26T09:19:20;6.37;;;2.30;;
69847;SDS011;57143;55.940;37.496;2024-02-26T09:21:47;8.25;;;2.38;;
69847;SDS011;57143;55.940;37.496;2024-02-26T09:24:15;15.40;;;4.03;;
69847;SDS011;57143;55.940;37.496;2024-02-26T09:26:42;10.38;;;2.13;;
69847;SDS011;57143;55.940;37.496;2024-02-26T09:29:09;8.05;;;1.92;;
69847;SDS011;57143;55.940;37.496;2024-02-26T09:31:38;10.63;;;2.73;;
69847;SDS011;57143;55.940;37.496;2024-02-26T09:34:06;8.55;;;1.70;;
69847;SDS011;57143;55.940;37.496;2024-02-26T09:36:33;8.98;;;2.13;;
69847;SDS011;57143;55.940;37.496;2024-02-26T09:39:01;7.13;;;2.03;;
69847;SDS011;57143;55.940;37.496;2024-02-26T09:41:29;12.00;;;2.45;;
69847;SDS011;57143;55.940;37.496;2024-02-26T09:43:57;7.00;;;2.07;;
69847;SDS011;57143;55.940;37.496;2024-02-26T09:46:26;8.43;;;2.42;;
69847;SDS011;57143;55.940;37.496;2024-02-26T09:48:54;7.85;;;2.88;;
69847;SDS011;57143;55.940;37.496;2024-02-26T09:51:23;7.15;;;2.85;;
69847;SDS011;57143;55.940;37.496;2024-02-26T09:53:51;8.38;;;2.47;;
69847;SDS011;57143;55.940;37.496;2024-02-26T09:56:19;12.00;;;2.73;;
69847;SDS011;57143;55.940;37.496;2024-02-26T09:58:47;10.20;;;2.72;;
69847;SDS011;57143;55.940;37.496;2024-02-26T10:01:19;9.02;;;2.30;;
69847;SDS011;57143;55.940;37.496;2024-02-26T10:03:52;9.35;;;2.47;;
69847;SDS011;57143;55.940;37.496;2024-02-26T10:06:24;9.90;;;2.78;;
69847;SDS011;57143;55.940;37.496;2024-02-26T10:08:52;10.23;;;2.60;;
69847;SDS011;57143;55.940;37.496;2024-02-26T10:11:21;7.38;;;2.33;;
69847;SDS011;57143;55.940;37.496;2024-02-26T10:13:50;6.88;;;2.28;;
69847;SDS011;57143;55.940;37.496;2024-02-26T10:16:17;9.07;;;2.35;;
69847;SDS011;57143;55.940;37.496;2024-02-26T10:18:46;13.63;;;2.33;;
69847;SDS011;57143;55.940;37.496;2024-02-26T10:21:17;6.77;;;2.27;;
69847;SDS011;57143;55.940;37.496;2024-02-26T10:23:45;7.57;;;2.05;;
69847;SDS011;57143;55.940;37.496;2024-02-26T10:26:13;8.10;;;2.67;;
69847;SDS011;57143;55.940;37.496;2024-02-26T10:28:42;11.25;;;3.50;;
69847;SDS011;57143;55.940;37.496;2024-02-26T10:31:10;10.63;;;3.03;;
69847;SDS011;57143;55.940;37.496;2024-02-26T10:33:38;8.23;;;2.40;;
69847;SDS011;57143;55.940;37.496;2024-02-26T10:36:07;9.57;;;2.30;;
69847;SDS011;57143;55.940;37.496;2024-02-26T10:38:36;8.48;;;2.83;;
69847;SDS011;57143;55.940;37.496;2024-02-26T10:41:04;9.95;;;2.63;;
69847;SDS011;57143;55.940;37.496;2024-02-26T10:43:33;8.18;;;3.03;;
69847;SDS011;57143;55.940;37.496;2024-02-26T10:46:01;11.23;;;2.47;;
69847;SDS011;57143;55.940;37.496;2024-02-26T10:48:28;7.20;;;2.20;;
69847;SDS011;57143;55.940;37.496;2024-02-26T10:50:56;9.02;;;2.25;;
69847;SDS011;57143;55.940;37.496;2024-02-26T10:53:26;8.27;;;2.50;;
69847;SDS011;57143;55.940;37.496;2024-02-26T10:56:02;10.48;;;3.15;;
69847;SDS011;57143;55.940;37.496;2024-02-26T10:58:31;8.20;;;2.27;;
69847;SDS011;57143;55.940;37.496;2024-02-26T11:00:59;7.82;;;2.45;;
69847;SDS011;57143;55.940;37.496;2024-02-26T11:03:27;10.32;;;2.58;;
69847;SDS011;57143;55.940;37.496;2024-02-26T11:06:00;10.55;;;2.75;;
69847;SDS011;57143;55.940;37.496;2024-02-26T11:08:28;6.93;;;2.60;;
69847;SDS011;57143;55.940;37.496;2024-02-26T11:10:59;10.03;;;2.50;;
69847;SDS011;57143;55.940;37.496;2024-02-26T11:13:28;9.13;;;2.40;;
69847;SDS011;57143;55.940;37.496;2024-02-26T11:15:57;8.43;;;2.25;;
69847;SDS011;57143;55.940;37.496;2024-02-26T11:18:27;5.85;;;2.03;;
69847;SDS011;57143;55.940;37.496;2024-02-26T11:20:54;12.88;;;2.30;;
69847;SDS011;57143;55.940;37.496;2024-02-26T11:23:40;8.60;;;2.20;;
69847;SDS011;57143;55.940;37.496;2024-02-26T11:26:08;6.90;;;2.47;;
69847;SDS011;57143;55.940;37.496;2024-02-26T11:28:37;9.02;;;2.65;;
69847;SDS011;57143;55.940;37.496;2024-02-26T11:31:06;10.02;;;2.80;;
69847;SDS011;57143;55.940;37.496;2024-02-26T11:33:34;8.57;;;2.90;;
69847;SDS011;57143;55.940;37.496;2024-02-26T11:36:02;8.47;;;2.53;;
69847;SDS011;57143;55.940;37.496;2024-02-26T11:38:35;11.15;;;2.35;;
69847;SDS011;57143;55.940;37.496;2024-02-26T11:41:06;9.68;;;2.92;;
69847;SDS011;57143;55.940;37.496;2024-02-26T11:43:51;10.40;;;3.13;;
69847;SDS011;57143;55.940;37.496;2024-02-26T11:46:26;11.80;;;2.22;;
69847;SDS011;57143;55.940;37.496;2024-02-26T11:48:54;12.67;;;2.47;;
69847;SDS011;57143;55.940;37.496;2024-02-26T11:51:26;10.98;;;2.75;;
69847;SDS011;57143;55.940;37.496;2024-02-26T11:53:54;8.90;;;2.67;;
69847;SDS011;57143;55.940;37.496;2024-02-26T11:56:25;10.10;;;2.65;;
69847;SDS011;57143;55.940;37.496;2024-02-26T11:58:59;10.07;;;2.58;;
69847;SDS011;57143;55.940;37.496;2024-02-26T12:01:43;11.23;;;3.23;;
69847;SDS011;57143;55.940;37.496;2024-02-26T12:04:17;11.10;;;2.75;;
69847;SDS011;57143;55.940;37.496;2024-02-26T12:06:46;8.30;;;2.72;;
69847;SDS011;57143;55.940;37.496;2024-02-26T12:09:35;11.85;;;2.45;;
69847;SDS011;57143;55.940;37.496;2024-02-26T12:12:06;8.93;;;2.63;;
69847;SDS011;57143;55.940;37.496;2024-02-26T12:14:34;8.63;;;2.10;;
69847;SDS011;57143;55.940;37.496;2024-02-26T12:17:04;7.93;;;2.53;;
69847;SDS011;57143;55.940;37.496;2024-02-26T12:19:32;9.60;;;3.42;;
69847;SDS011;57143;55.940;37.496;2024-02-26T12:22:01;15.43;;;2.85;;
69847;SDS011;57143;55.940;37.496;2024-02-26T12:24:29;10.23;;;3.45;;
69847;SDS011;57143;55.940;37.496;2024-02-26T12:26:56;13.17;;;3.13;;
69847;SDS011;57143;55.940;37.496;2024-02-26T12:29:25;7.35;;;2.72;;
69847;SDS011;57143;55.940;37.496;2024-02-26T12:31:52;8.63;;;3.08;;
69847;SDS011;57143;55.940;37.496;2024-02-26T12:34:19;9.63;;;2.25;;
69847;SDS011;57143;55.940;37.496;2024-02-26T12:36:47;12.00;;;3.53;;
69847;SDS011;57143;55.940;37.496;2024-02-26T12:39:15;9.97;;;2.80;;
69847;SDS011;57143;55.940;37.496;2024-02-26T12:41:42;9.20;;;3.00;;
69847;SDS011;57143;55.940;37.496;2024-02-26T12:44:14;13.10;;;3.58;;
69847;SDS011;57143;55.940;37.496;2024-02-26T12:46:43;9.68;;;2.97;;
69847;SDS011;57143;55.940;37.496;2024-02-26T12:49:14;13.85;;;3.40;;
69847;SDS011;57143;55.940;37.496;2024-02-26T12:51:43;8.13;;;3.30;;
69847;SDS011;57143;55.940;37.496;2024-02-26T12:54:11;10.95;;;3.35;;
69847;SDS011;57143;55.940;37.496;2024-02-26T12:56:39;10.20;;;3.17;;
69847;SDS011;57143;55.940;37.496;2024-02-26T12:59:07;10.65;;;3.17;;
69847;SDS011;57143;55.940;37.496;2024-02-26T13:01:35;7.03;;;2.08;;
69847;SDS011;57143;55.940;37.496;2024-02-26T13:04:04;10.17;;;3.00;;
69847;SDS011;57143;55.940;37.496;2024-02-26T13:06:32;10.32;;;2.53;;
69847;SDS011;57143;55.940;37.496;2024-02-26T13:09:00;8.70;;;2.97;;
69847;SDS011;57143;55.940;37.496;2024-02-26T13:11:28;10.32;;;3.50;;
69847;SDS011;57143;55.940;37.496;2024-02-26T13:13:57;10.45;;;3.20;;
69847;SDS011;57143;55.940;37.496;2024-02-26T13:16:24;8.83;;;1.97;;
69847;SDS011;57143;55.940;37.496;2024-02-26T13:18:53;12.52;;;3.20;;
69847;SDS011;57143;55.940;37.496;2024-02-26T13:21:22;9.40;;;2.85;;
69847;SDS011;57143;55.940;37.496;2024-02-26T13:23:51;9.65;;;2.65;;
69847;SDS011;57143;55.940;37.496;2024-02-26T13:26:21;8.02;;;2.53;;
69847;SDS011;57143;55.940;37.496;2024-02-26T13:28:59;17.57;;;3.00;;
69847;SDS011;57143;55.940;37.496;2024-02-26T13:31:27;8.18;;;2.50;;
69847;SDS011;57143;55.940;37.496;2024-02-26T13:33:54;11.55;;;3.30;;
69847;SDS011;57143;55.940;37.496;2024-02-26T13:36:23;12.70;;;3.33;;
69847;SDS011;57143;55.940;37.496;2024-02-26T13:38:51;8.35;;;2.65;;
69847;SDS011;57143;55.940;37.496;2024-02-26T13:41:20;6.13;;;1.90;;
69847;SDS011;57143;55.940;37.496;2024-02-26T13:43:48;9.75;;;2.50;;
69847;SDS011;57143;55.940;37.496;2024-02-26T13:46:15;11.43;;;3.15;;
69847;SDS011;57143;55.940;37.496;2024-02-26T13:48:42;8.98;;;3.20;;
69847;SDS011;57143;55.940;37.496;2024-02-26T13:51:10;9.10;;;2.85;;
69847;SDS011;57143;55.940;37.496;2024-02-26T13:53:39;11.77;;;2.50;;
69847;SDS011;57143;55.940;37.496;2024-02-26T13:56:06;10.30;;;2.60;;
69847;SDS011;57143;55.940;37.496;2024-02-26T13:58:34;9.20;;;2.47;;
69847;SDS011;57143;55.940;37.496;2024-02-26T14:01:04;9.07;;;2.40;;
69847;SDS011;57143;55.940;37.496;2024-02-26T14:03:31;9.32;;;1.73;;
69847;SDS011;57143;55.940;37.496;2024-02-26T14:05:59;5.70;;;1.50;;
69847;SDS011;57143;55.940;37.496;2024-02-26T14:08:45;7.85;;;2.47;;
69847;SDS011;57143;55.940;37.496;2024-02-26T14:11:12;8.40;;;1.90;;
69847;SDS011;57143;55.940;37.496;2024-02-26T14:13:40;6.13;;;1.73;;
69847;SDS011;57143;55.940;37.496;2024-02-26T14:16:07;6.47;;;1.80;;
69847;SDS011;57143;55.940;37.496;2024-02-26T14:18:36;10.67;;;1.97;;
69847;SDS011;57143;55.940;37.496;2024-02-26T14:21:03;8.10;;;2.53;;
69847;SDS011;57143;55.940;37.496;2024-02-26T14:23:31;9.88;;;1.90;;
69847;SDS011;57143;55.940;37.496;2024-02-26T14:26:00;5.93;;;1.33;;
69847;SDS011;57143;55.940;37.496;2024-02-26T14:28:27;7.47;;;1.95;;
69847;SDS011;57143;55.940;37.496;2024-02-26T14:30:54;8.60;;;2.20;;
69847;SDS011;57143;55.940;37.496;2024-02-26T14:33:22;6.88;;;1.55;;
69847;SDS011;57143;55.940;37.496;2024-02-26T14:35:49;5.85;;;1.45;;
69847;SDS011;57143;55.940;37.496;2024-02-26T14:38:16;7.80;;;1.33;;
69847;SDS011;57143;55.940;37.496;2024-02-26T14:40:48;9.65;;;1.70;;